createdAt,value
2019-05-02T00:01:44.396Z,100038.90
2019-05-02T00:04:19.977Z,100035.00
2019-05-02T00:06:46.105Z,100033.37
2019-05-02T00:09:14.815Z,100033.99
2019-05-02T00:11:43.469Z,100038.53
2019-05-02T00:14:12.757Z,100031.22
2019-05-02T00:16:45.215Z,100027.09
2019-05-02T00:19:14.056Z,100025.45
2019-05-02T00:21:43.034Z,100026.17
2019-05-02T00:24:13.819Z,100030.08
2019-05-02T00:26:42.504Z,100034.20
2019-05-02T00:29:11.215Z,100029.58
2019-05-02T00:31:41.971Z,100027.41
2019-05-02T00:34:10.192Z,100027.11
2019-05-02T00:36:38.893Z,100024.83
2019-05-02T00:39:09.531Z,100030.60
2019-05-02T00:41:38.842Z,100031.72
2019-05-02T00:44:10.993Z,100025.56
2019-05-02T00:46:38.918Z,100019.69
2019-05-02T00:49:07.835Z,100025.33
2019-05-02T00:51:36.492Z,100023.09
2019-05-02T00:54:05.162Z,100029.27
2019-05-02T00:56:33.780Z,100019.08
2019-05-02T00:59:07.084Z,100023.15
2019-05-02T01:01:40.600Z,100015.05
2019-05-02T01:04:15.849Z,100019.27
2019-05-02T01:06:44.651Z,100019.27
2019-05-02T01:09:14.890Z,100014.13
2019-05-02T01:11:43.547Z,100013.81
2019-05-02T01:14:12.155Z,100014.88
2019-05-02T01:16:40.770Z,100010.73
2019-05-02T01:19:12.142Z,100010.22
2019-05-02T01:21:40.119Z,100008.69
2019-05-02T01:24:08.983Z,100008.70
2019-05-02T01:26:41.319Z,100010.64
2019-05-02T01:29:15.111Z,100013.83
2019-05-02T01:31:54.725Z,100008.97
2019-05-02T01:34:36.870Z,100004.16
2019-05-02T01:37:20.373Z,100008.87
2019-05-02T01:39:44.099Z,100003.66
2019-05-02T01:42:13.018Z,100000.27
2019-05-02T01:44:41.640Z,100005.00
2019-05-02T01:47:10.265Z,100000.35
2019-05-02T01:49:38.869Z,100001.30
2019-05-02T01:52:07.520Z,99998.00
2019-05-02T01:54:36.123Z,99994.71
2019-05-02T01:57:08.627Z,100001.06
2019-05-02T01:59:35.351Z,99996.02
2019-05-02T02:02:04.045Z,99989.75
2019-05-02T02:04:32.762Z,99993.36
2019-05-02T02:07:01.445Z,99990.78
2019-05-02T02:09:30.168Z,99982.98
2019-05-02T02:11:58.863Z,99984.20
2019-05-02T02:14:27.472Z,99987.52
2019-05-02T02:16:56.120Z,99985.43
2019-05-02T02:19:40.684Z,99979.49
2019-05-02T02:22:27.655Z,99991.09
2019-05-02T02:25:13.814Z,99981.22
2019-05-02T02:27:42.433Z,99985.45
2019-05-02T02:30:17.892Z,99981.72
2019-05-02T02:32:41.576Z,99976.91
2019-05-02T02:35:12.578Z,99987.39
2019-05-02T02:37:52.050Z,99987.88
2019-05-02T02:40:11.043Z,99991.97
2019-05-02T02:42:39.666Z,99986.23
2019-05-02T02:45:20.461Z,99981.21
2019-05-02T02:47:53.049Z,99984.18
2019-05-02T02:50:19.537Z,99974.59
2019-05-02T02:52:48.166Z,99975.66
2019-05-02T02:55:22.191Z,99969.08
2019-05-02T02:57:47.100Z,99969.25
2019-05-02T03:00:16.204Z,99971.73
2019-05-02T03:02:48.624Z,99964.41
2019-05-02T03:05:18.489Z,99972.13
2019-05-02T03:07:46.050Z,99970.06
2019-05-02T03:10:14.745Z,99979.77
2019-05-02T03:13:08.242Z,99976.20
2019-05-02T03:15:41.828Z,99980.40
2019-05-02T03:18:10.538Z,99982.73
2019-05-02T03:20:40.570Z,99981.41
2019-05-02T03:23:15.005Z,99978.35
2019-05-02T03:25:50.344Z,99976.54
2019-05-02T03:28:17.504Z,99975.73
2019-05-02T03:30:40.878Z,99972.95
2019-05-02T03:33:11.933Z,99971.83
2019-05-02T03:35:44.206Z,99973.87
2019-05-02T03:38:10.522Z,99971.53
2019-05-02T03:40:41.405Z,99971.52
2019-05-02T03:43:09.706Z,99971.07
2019-05-02T03:45:40.985Z,99967.60
2019-05-02T03:48:09.477Z,99972.79
2019-05-02T03:50:38.676Z,99972.49
2019-05-02T03:53:07.354Z,99967.20
2019-05-02T03:55:36.238Z,99971.02
2019-05-02T03:58:13.160Z,99971.56
2019-05-02T04:00:35.503Z,99968.89
2019-05-02T04:03:04.518Z,99969.45
2019-05-02T04:05:33.709Z,99972.34
2019-05-02T04:08:04.763Z,99971.89
2019-05-02T04:11:21.628Z,99976.66
2019-05-02T04:13:52.918Z,99980.47
2019-05-02T04:16:22.242Z,99975.33
2019-05-02T04:18:55.585Z,99978.92
2019-05-02T04:21:24.822Z,99979.69
2019-05-02T04:23:52.544Z,99984.24
2019-05-02T04:26:21.252Z,99980.75
2019-05-02T04:28:51.549Z,99987.55
2019-05-02T04:31:24.926Z,99987.77
2019-05-02T04:33:50.616Z,99978.63
2019-05-02T04:36:19.320Z,99985.23
2019-05-02T04:38:52.148Z,99983.61
2019-05-02T04:41:28.303Z,99982.44
2019-05-02T04:43:57.746Z,99983.86
2019-05-02T04:46:27.256Z,99979.18
2019-05-02T04:48:52.697Z,99981.14
2019-05-02T04:51:20.701Z,99974.20
2019-05-02T04:53:50.118Z,99983.31
2019-05-02T04:56:19.042Z,99979.91
2019-05-02T04:58:49.395Z,99984.12
2019-05-02T05:01:21.034Z,99983.57
2019-05-02T05:03:57.423Z,99981.51
2019-05-02T05:06:19.165Z,99982.31
2019-05-02T05:08:48.423Z,99980.81
2019-05-02T05:11:20.882Z,99982.45
2019-05-02T05:13:48.020Z,99986.63
2019-05-02T05:16:18.576Z,99989.16
2019-05-02T05:18:50.689Z,99991.11
2019-05-02T05:21:18.225Z,99988.59
2019-05-02T05:24:07.736Z,99989.68
2019-05-02T05:26:40.952Z,99991.63
2019-05-02T05:29:08.400Z,99992.96
2019-05-02T05:31:38.249Z,99991.34
2019-05-02T05:34:07.787Z,99989.67
2019-05-02T05:36:37.580Z,99991.01
2019-05-02T05:39:08.366Z,99992.20
2019-05-02T05:41:37.797Z,99995.41
2019-05-02T05:44:07.796Z,99993.09
2019-05-02T05:46:40.952Z,99993.13
2019-05-02T05:49:10.531Z,99990.89
2019-05-02T05:51:37.496Z,99988.24
2019-05-02T05:54:07.711Z,99990.55
2019-05-02T05:56:39.782Z,99995.21
2019-05-02T05:59:07.790Z,99993.98
2019-05-02T06:01:38.446Z,99991.09
2019-05-02T06:04:08.011Z,99995.01
2019-05-02T06:06:37.781Z,99988.83
2019-05-02T06:09:08.383Z,99998.47
2019-05-02T06:11:37.019Z,99996.56
2019-05-02T06:14:06.406Z,100001.61
2019-05-02T06:16:35.434Z,99992.50
2019-05-02T06:19:04.272Z,99986.72
2019-05-02T06:21:32.941Z,99991.88
2019-05-02T06:24:01.566Z,99992.44
2019-05-02T06:26:30.189Z,99995.56
2019-05-02T06:28:58.832Z,99992.91
2019-05-02T06:31:27.513Z,99992.52
2019-05-02T06:33:56.143Z,99997.49
2019-05-02T06:36:24.764Z,99986.67
2019-05-02T06:38:56.630Z,99989.59
2019-05-02T06:41:23.811Z,99993.94
2019-05-02T06:43:52.467Z,99987.08
2019-05-02T06:46:21.932Z,99989.86
2019-05-02T06:48:52.271Z,99992.03
2019-05-02T06:51:21.279Z,99994.60
2019-05-02T06:53:49.907Z,99995.14
2019-05-02T06:56:18.521Z,99994.53
2019-05-02T06:58:47.130Z,99997.67
2019-05-02T07:01:16.122Z,99999.39
2019-05-02T07:03:47.484Z,99997.97
2019-05-02T07:06:16.504Z,100002.63
2019-05-02T07:08:45.308Z,100003.89
2019-05-02T07:11:13.891Z,100009.09
2019-05-02T07:13:43.804Z,99998.22
2019-05-02T07:16:36.866Z,100002.37
2019-05-02T07:18:55.603Z,100013.22
2019-05-02T07:21:24.228Z,100013.19
2019-05-02T07:23:53.673Z,100012.45
2019-05-02T07:26:23.488Z,100013.91
2019-05-02T07:28:52.261Z,100012.97
2019-05-02T07:31:20.913Z,100014.93
2019-05-02T07:33:49.529Z,100008.69
2019-05-02T07:36:18.164Z,100005.70
2019-05-02T07:38:46.808Z,100015.42
2019-05-02T07:41:15.528Z,100011.98
2019-05-02T07:43:44.240Z,100009.16
2019-05-02T07:46:16.149Z,100007.08
2019-05-02T07:48:43.740Z,100004.91
2019-05-02T07:51:12.374Z,100009.28
2019-05-02T07:53:44.587Z,100004.28
2019-05-02T07:56:12.432Z,100006.83
2019-05-02T07:58:46.792Z,100001.54
2019-05-02T08:01:13.454Z,100007.91
2019-05-02T08:03:42.481Z,100001.28
2019-05-02T08:06:11.128Z,100004.93
2019-05-02T08:08:39.749Z,100000.80
2019-05-02T08:11:08.477Z,100002.00
2019-05-02T08:13:37.148Z,100003.80
2019-05-02T08:16:05.821Z,99999.45
2019-05-02T08:18:34.513Z,99991.48
2019-05-02T08:21:03.142Z,99996.03
2019-05-02T08:23:31.733Z,99996.24
2019-05-02T08:26:00.362Z,100001.57
2019-05-02T08:28:34.543Z,99997.02
2019-05-02T08:31:03.165Z,99999.02
2019-05-02T08:33:34.931Z,100000.43
2019-05-02T08:36:02.134Z,99994.74
2019-05-02T08:38:30.759Z,99993.98
2019-05-02T08:40:59.376Z,99995.95
2019-05-02T08:43:28.050Z,99997.50
2019-05-02T08:45:56.698Z,99996.98
2019-05-02T08:48:25.380Z,99994.05
2019-05-02T08:50:54.924Z,99989.88
2019-05-02T08:53:23.648Z,99992.34
2019-05-02T08:55:52.283Z,99989.27
2019-05-02T08:58:20.926Z,99984.84
2019-05-02T09:00:49.617Z,99987.36
2019-05-02T09:03:18.337Z,99990.23
2019-05-02T09:05:47.482Z,99979.52
2019-05-02T09:08:16.748Z,99973.45
2019-05-02T09:10:45.698Z,99967.75
2019-05-02T09:13:18.049Z,99983.56
2019-05-02T09:15:49.745Z,99968.69
2019-05-02T09:18:15.111Z,99962.78
2019-05-02T09:20:47.065Z,99966.20
2019-05-02T09:23:14.079Z,99962.64
2019-05-02T09:25:43.117Z,99961.91
2019-05-02T09:28:12.505Z,99964.08
2019-05-02T09:30:41.893Z,99963.45
2019-05-02T09:33:11.786Z,99949.02
2019-05-02T09:35:42.212Z,99955.36
2019-05-02T09:38:12.988Z,99953.73
2019-05-02T09:40:42.639Z,99956.90
2019-05-02T09:43:12.218Z,99943.21
2019-05-02T09:45:43.205Z,99941.28
2019-05-02T09:48:12.630Z,99939.30
2019-05-02T09:50:42.177Z,99934.42
2019-05-02T09:53:13.052Z,99939.42
2019-05-02T09:55:49.113Z,99929.47
2019-05-02T09:58:19.495Z,99938.61
2019-05-02T10:01:01.870Z,99928.70
2019-05-02T10:03:31.950Z,99925.63
2019-05-02T10:06:02.930Z,99920.45
2019-05-02T10:08:32.124Z,99918.63
2019-05-02T10:11:02.795Z,99907.36
2019-05-02T10:13:32.677Z,99907.36
2019-05-02T10:16:02.030Z,99904.59
2019-05-02T10:18:32.801Z,99904.59
2019-05-02T10:21:03.036Z,99906.88
2019-05-02T10:23:32.120Z,99895.97
2019-05-02T10:26:02.895Z,99890.69
2019-05-02T10:28:31.790Z,99889.84
2019-05-02T10:31:02.243Z,99891.00
2019-05-02T10:33:33.793Z,99885.60
2019-05-02T10:36:02.687Z,99882.62
2019-05-02T10:38:32.598Z,99875.35
2019-05-02T10:41:02.662Z,99871.22
2019-05-02T10:43:32.953Z,99877.27
2019-05-02T10:46:07.757Z,99872.13
2019-05-02T10:48:39.487Z,99872.13
2019-05-02T10:51:34.378Z,99867.88
2019-05-02T10:54:04.660Z,99875.41
2019-05-02T10:56:33.358Z,99872.19
2019-05-02T10:59:02.313Z,99869.73
2019-05-02T11:01:34.264Z,99865.54
2019-05-02T11:04:04.415Z,99857.49
2019-05-02T11:06:37.208Z,99857.49
2019-05-02T11:09:06.184Z,99847.81
2019-05-02T11:11:34.000Z,99842.59
2019-05-02T11:14:14.883Z,99842.59
2019-05-02T11:17:01.765Z,99839.66
2019-05-02T11:19:36.715Z,99832.86
2019-05-02T11:22:05.436Z,99840.41
2019-05-02T11:24:34.056Z,99822.16
2019-05-02T11:27:02.686Z,99822.16
2019-05-02T11:29:32.234Z,99820.74
2019-05-02T11:32:02.752Z,99820.74
2019-05-02T11:34:32.666Z,99801.25
2019-05-02T11:37:01.836Z,99800.84
2019-05-02T11:39:40.686Z,99805.59
2019-05-02T11:42:02.093Z,99805.59
2019-05-02T11:44:32.651Z,99807.73
2019-05-02T11:47:02.087Z,99792.55
2019-05-02T11:49:31.961Z,99792.55
2019-05-02T11:52:04.530Z,99803.37
2019-05-02T11:54:39.288Z,99791.55
2019-05-02T11:57:07.044Z,99791.55
2019-05-02T11:59:48.623Z,99793.84
2019-05-02T12:02:58.068Z,99796.91
2019-05-02T12:05:35.549Z,99796.91
2019-05-02T12:08:07.754Z,99792.80
2019-05-02T12:10:36.677Z,99792.80
2019-05-02T12:13:15.919Z,99786.72
2019-05-02T12:15:44.524Z,99786.72
2019-05-02T12:18:15.296Z,99792.66
2019-05-02T12:20:44.588Z,99792.43
2019-05-02T12:23:18.692Z,99786.25
2019-05-02T12:25:49.580Z,99786.25
2019-05-02T12:28:20.084Z,99799.47
2019-05-02T12:30:49.373Z,99783.61
2019-05-02T12:33:22.362Z,99785.59
2019-05-02T12:35:55.806Z,99779.75
2019-05-02T12:38:34.910Z,99779.75
2019-05-02T12:41:04.193Z,99786.77
2019-05-02T12:43:41.626Z,99778.58
2019-05-02T12:46:11.877Z,99778.58
2019-05-02T12:48:43.084Z,99786.00
2019-05-02T12:51:18.149Z,99774.20
2019-05-02T12:53:52.976Z,99776.19
2019-05-02T12:56:24.704Z,99777.36
2019-05-02T12:58:54.619Z,99777.36
2019-05-02T13:05:08.475Z,99773.39
2019-05-02T13:07:54.247Z,99751.53
2019-05-02T13:10:32.886Z,99766.37
2019-05-02T13:13:02.826Z,99758.27
2019-05-02T13:15:39.497Z,99755.03
2019-05-02T13:18:09.146Z,99755.03
2019-05-02T13:20:42.598Z,99751.98
2019-05-02T13:23:34.087Z,99750.10
2019-05-02T13:26:10.119Z,99742.52
2019-05-02T13:28:33.935Z,99735.21
2019-05-02T13:31:22.427Z,99739.22
2019-05-02T13:33:58.829Z,99740.91
2019-05-02T13:36:45.826Z,99730.91
2019-05-02T13:39:42.349Z,99733.34
2019-05-02T13:42:12.528Z,99727.91
2019-05-02T13:44:49.048Z,99728.75
2019-05-02T13:47:21.857Z,99721.92
2019-05-02T13:49:59.100Z,99706.73
2019-05-02T13:52:29.031Z,99706.73
2019-05-02T13:55:01.798Z,99709.70
2019-05-02T13:57:35.018Z,99709.70
2019-05-02T14:00:04.718Z,99704.55
2019-05-02T14:02:37.778Z,99696.69
2019-05-02T14:05:07.907Z,99692.89
2019-05-02T14:07:36.637Z,99692.89
2019-05-02T14:10:13.167Z,99685.59
2019-05-02T14:12:47.240Z,99678.48
2019-05-02T14:15:17.156Z,99679.61
2019-05-02T14:17:45.770Z,99676.61
2019-05-02T14:20:16.105Z,99671.20
2019-05-02T14:22:44.738Z,99665.20
2019-05-02T14:25:13.505Z,99665.20
2019-05-02T14:27:42.325Z,99664.66
2019-05-02T14:30:12.196Z,99666.02
2019-05-02T14:32:42.490Z,99660.58
2019-05-02T14:35:32.454Z,99655.98
2019-05-02T14:38:12.849Z,99656.48
2019-05-02T14:41:03.135Z,99653.75
2019-05-02T14:43:55.506Z,99653.49
2019-05-02T14:46:34.037Z,99646.45
2019-05-02T14:48:56.497Z,99639.94
2019-05-02T14:51:27.585Z,99637.76
2019-05-02T14:53:57.399Z,99627.22
2019-05-02T14:56:49.299Z,99627.22
2019-05-02T14:59:19.923Z,99630.17
2019-05-02T15:01:57.955Z,99606.91
2019-05-02T15:04:24.258Z,99606.91
2019-05-02T15:06:52.968Z,99628.56
2019-05-02T15:09:26.582Z,99604.92
2019-05-02T15:12:02.915Z,99604.92
2019-05-02T15:14:33.302Z,99625.01
2019-05-02T15:17:02.712Z,99620.69
2019-05-02T15:19:33.009Z,99624.78
2019-05-02T15:22:02.260Z,99617.45
2019-05-02T15:24:33.409Z,99613.13
2019-05-02T15:27:03.662Z,99612.05
2019-05-02T15:29:32.313Z,99603.63
2019-05-02T15:32:12.976Z,99603.63
2019-05-02T15:34:59.507Z,99610.44
2019-05-02T15:37:28.718Z,99602.84
2019-05-02T15:42:27.795Z,99606.08
2019-05-02T15:44:57.056Z,99604.46
2019-05-02T15:47:26.755Z,99603.38
2019-05-02T15:49:55.402Z,99600.38
2019-05-02T15:52:28.455Z,99601.74
2019-05-02T15:55:02.065Z,99599.58
2019-05-02T15:57:27.547Z,99597.41
2019-05-02T15:59:56.240Z,99590.63
2019-05-02T16:02:26.759Z,99596.06
2019-05-02T16:04:57.001Z,99586.26
2019-05-02T16:07:25.794Z,99585.42
2019-05-02T16:09:59.415Z,99574.64
2019-05-02T16:12:27.197Z,99584.94
2019-05-02T16:14:55.123Z,99570.79
2019-05-02T16:17:27.730Z,99570.79
2019-05-02T16:20:06.951Z,99580.55
2019-05-02T16:22:29.919Z,99581.08
2019-05-02T16:24:58.625Z,99570.78
2019-05-02T16:27:46.305Z,99575.94
2019-05-02T16:30:17.045Z,99575.94
2019-05-02T16:32:49.759Z,99588.28
2019-05-02T16:35:24.987Z,99577.77
2019-05-02T16:37:56.055Z,99577.77
2019-05-02T16:40:29.617Z,99578.83
2019-05-02T16:42:59.230Z,99569.88
2019-05-02T16:45:28.809Z,99569.88
2019-05-02T16:48:18.055Z,99579.59
2019-05-02T16:50:49.443Z,99576.30
2019-05-02T16:53:22.697Z,99572.03
2019-05-02T16:55:58.484Z,99572.03
2019-05-02T16:58:33.366Z,99552.97
2019-05-02T17:01:01.811Z,99552.97
2019-05-02T17:03:32.102Z,99562.33
2019-05-02T17:06:02.382Z,99574.86
2019-05-02T17:09:03.713Z,99575.11
2019-05-02T17:11:42.001Z,99571.58
2019-05-02T17:14:13.408Z,99571.58
2019-05-02T17:16:52.371Z,99573.20
2019-05-02T17:19:21.534Z,99580.50
2019-05-02T17:21:53.981Z,99573.98
2019-05-02T17:24:26.063Z,99573.98
2019-05-02T17:27:00.097Z,99576.09
2019-05-02T17:29:31.735Z,99576.09
2019-05-02T17:32:04.783Z,99573.03
2019-05-02T17:34:35.026Z,99582.28
2019-05-02T17:37:11.205Z,99582.28
2019-05-02T17:39:42.671Z,99571.61
2019-05-02T17:42:12.467Z,99588.98
2019-05-02T17:44:44.041Z,99588.61
2019-05-02T17:47:14.808Z,99582.68
2019-05-02T17:49:44.161Z,99596.42
2019-05-02T17:52:26.725Z,99596.42
2019-05-02T17:54:57.364Z,99590.32
2019-05-02T17:57:33.487Z,99597.59
2019-05-02T18:00:00.458Z,99597.59
2019-05-02T18:02:32.007Z,99590.81
2019-05-02T18:05:02.758Z,99590.80
2019-05-02T18:07:36.379Z,99594.27
2019-05-02T18:10:14.355Z,99594.27
2019-05-02T18:12:47.256Z,99600.40
2019-05-02T18:15:19.711Z,99600.40
2019-05-02T18:17:49.675Z,99591.63
2019-05-02T18:20:25.436Z,99598.20
2019-05-02T18:22:56.231Z,99599.91
2019-05-02T18:25:29.146Z,99599.91
2019-05-02T18:28:22.302Z,99593.66
2019-05-02T18:30:52.451Z,99603.88
2019-05-02T18:33:23.570Z,99603.88
2019-05-02T18:35:53.307Z,99605.84
2019-05-02T18:38:22.909Z,99604.75
2019-05-02T18:40:55.390Z,99607.81
2019-05-02T18:43:36.118Z,99610.45
2019-05-02T18:46:07.760Z,99610.19
2019-05-02T18:48:42.203Z,99613.20
2019-05-02T18:51:17.158Z,99619.96
2019-05-02T18:53:43.598Z,99624.27
2019-05-02T18:56:17.670Z,99620.45
2019-05-02T18:58:48.120Z,99624.09
2019-05-02T19:01:20.947Z,99626.27
2019-05-02T19:03:56.104Z,99630.53
2019-05-02T19:06:32.409Z,99630.76
2019-05-02T19:09:02.662Z,99634.98
2019-05-02T19:11:35.302Z,99631.77
2019-05-02T19:14:07.721Z,99631.77
2019-05-02T19:16:39.512Z,99641.14
2019-05-02T19:19:17.053Z,99648.71
2019-05-02T19:21:47.512Z,99664.95
2019-05-02T19:24:20.234Z,99670.22
2019-05-02T19:26:56.356Z,99677.03
2019-05-02T19:29:35.555Z,99689.73
2019-05-02T19:32:12.241Z,99692.86
2019-05-02T19:34:46.565Z,99691.23
2019-05-02T19:37:17.631Z,99696.36
2019-05-02T19:39:48.917Z,99703.67
2019-05-02T19:42:22.652Z,99714.77
2019-05-02T19:44:52.637Z,99713.94
2019-05-02T19:47:26.486Z,99721.29
2019-05-02T19:49:55.853Z,99720.98
2019-05-02T19:52:28.574Z,99722.58
2019-05-02T19:55:00.087Z,99725.91
2019-05-02T19:57:28.958Z,99730.98
2019-05-02T20:00:02.717Z,99736.34
2019-05-02T20:02:37.425Z,99743.22
2019-05-02T20:05:07.329Z,99741.69
2019-05-02T20:07:40.029Z,99746.37
2019-05-02T20:10:12.294Z,99746.20
2019-05-02T20:12:48.102Z,99749.95
2019-05-02T20:15:22.823Z,99755.89
2019-05-02T20:18:00.377Z,99755.79
2019-05-02T20:21:23.545Z,99754.92
2019-05-02T20:23:45.776Z,99755.18
2019-05-02T20:26:16.945Z,99752.59
2019-05-02T20:28:47.065Z,99749.17
2019-05-02T20:31:21.688Z,99749.67
2019-05-02T20:33:57.101Z,99745.22
2019-05-02T20:36:32.138Z,99744.46
2019-05-02T20:39:04.606Z,99742.77
2019-05-02T20:41:39.261Z,99734.84
2019-05-02T20:44:12.181Z,99740.42
2019-05-02T20:46:44.507Z,99737.84
2019-05-02T20:49:21.480Z,99739.08
2019-05-02T20:51:52.797Z,99734.90
2019-05-02T20:54:22.267Z,99733.43
2019-05-02T20:57:06.456Z,99736.16
2019-05-02T20:59:37.818Z,99737.34
2019-05-02T21:02:12.063Z,99732.73
2019-05-02T21:04:42.555Z,99734.55
2019-05-02T21:07:37.465Z,99737.33
2019-05-02T21:10:12.988Z,99736.86
2019-05-02T21:12:42.640Z,99732.64
2019-05-02T21:15:12.783Z,99741.97
2019-05-02T21:17:45.787Z,99748.94
2019-05-02T21:20:14.837Z,99749.50
2019-05-02T21:22:45.171Z,99741.41
2019-05-02T21:26:04.786Z,99744.92
2019-05-02T21:28:35.753Z,99737.70
2019-05-02T21:31:12.597Z,99745.28
2019-05-02T21:33:42.745Z,99754.08
2019-05-02T21:36:15.872Z,99759.53
2019-05-02T21:42:34.914Z,99768.64
2019-05-02T21:45:08.269Z,99765.20
2019-05-02T21:47:50.410Z,99769.23
2019-05-02T21:50:46.098Z,99767.73
2019-05-02T21:53:54.977Z,99765.96
2019-05-02T21:56:26.290Z,99770.92
2019-05-02T21:59:12.139Z,99768.64
2019-05-02T22:01:52.960Z,99771.20
2019-05-02T22:04:26.947Z,99777.95
2019-05-02T22:06:56.484Z,99777.21
2019-05-02T22:09:25.940Z,99775.99
2019-05-02T22:11:54.731Z,99777.20
2019-05-02T22:14:24.082Z,99780.48
2019-05-02T22:16:57.341Z,99776.30
2019-05-02T22:19:28.923Z,99774.06
2019-05-02T22:21:58.850Z,99776.68
2019-05-02T22:24:31.639Z,99783.91
2019-05-02T22:27:03.808Z,99782.03
2019-05-02T22:29:36.918Z,99782.39
2019-05-02T22:32:05.582Z,99780.31
2019-05-02T22:34:34.219Z,99786.81
2019-05-02T22:37:04.805Z,99785.52
2019-05-02T22:39:50.712Z,99784.63
2019-05-02T22:42:19.323Z,99783.73
2019-05-02T22:44:47.945Z,99790.53
2019-05-02T22:47:16.634Z,99784.86
2019-05-02T22:49:45.332Z,99784.48
2019-05-02T22:52:14.355Z,99788.05
2019-05-02T22:54:43.251Z,99794.77
2019-05-02T22:57:14.299Z,99799.09
2019-05-02T22:59:42.367Z,99803.73
2019-05-02T23:02:12.798Z,99802.17
2019-05-02T23:04:41.810Z,99801.49
2019-05-02T23:07:12.524Z,99803.06
2019-05-02T23:09:43.406Z,99791.88
2019-05-02T23:12:13.054Z,99795.30
2019-05-02T23:14:41.894Z,99808.95
2019-05-02T23:17:12.534Z,99805.65
2019-05-02T23:19:42.346Z,99809.89
2019-05-02T23:22:12.734Z,99808.55
2019-05-02T23:24:49.772Z,99810.78
2019-05-02T23:27:42.398Z,99813.62
2019-05-02T23:30:14.145Z,99821.36
2019-05-02T23:32:42.954Z,99815.88
2019-05-02T23:35:12.167Z,99819.57
2019-05-02T23:37:42.228Z,99815.33
2019-05-02T23:40:12.701Z,99816.14
2019-05-02T23:42:41.789Z,99817.03
2019-05-02T23:45:12.140Z,99822.80
2019-05-02T23:47:42.151Z,99829.56
2019-05-02T23:50:12.169Z,99828.37
2019-05-02T23:52:40.836Z,99821.89
2019-05-02T23:55:09.613Z,99823.99
2019-05-02T23:57:38.245Z,99820.34
